Portada
METAR-TAF:

METAR-TAF

Aeropuertos :

Aeropuerto de Gran Canaria

Gran Canaria, España

latitud: 27-56N, longitud: 015-23W, altitud: 23 m

Observación

El informe se hizo hace 20 minutos, a las 20:00 UTC
Viento 18 kt del norte-noreste
Temperatura 20°C
Humedad 60%
Presión 1018 hPa
Visibilidad 10 km o más
Escasas nubes a una altura de 3500 ft
Nubes dispersas a una altura de 6000 ft

METAR: GCLP 132000Z 02018KT 9999 FEW035 SCT060 20/12 Q1018 NOSIG

Hora: 20:20 (20:20 UTC)

Pronóstico

El informe se hizo hace 6 horas y 20 minutos, a las 14:00 UTC
Pronóstico válido del 13 a las 15 UTC al 14 a las 15 UTC
Viento 18 kt del norte-noreste
Visibilidad 10 km o más
Nubes dispersas a una altura de 3500 ft
Probabilidad 40% :
Temporalmente
del 13 a las 15 UTC al 13 a las 21 UTC
Viento 20 kt del norte-noreste con ráfagas de 30 kt

TAF: GCLP 131400Z 1315/1415 02018KT 9999 SCT035 TX22/1413Z TN17/1406Z PROB40 TEMPO 1315/1321 02020G30KT

Observaciones y pronósticos meteorológicos de más de 4000 aeropuertos (mensajes METAR y TAF).

Los puntos amarillos y rojos representan las estaciones disponibles.

Ponga el ratón en el punto deseado para ver el nombre de la estación.

Haga clic para ver las observaciones y los pronósticos meteorológicos.

Para cambiar el mapa : haga clic en los botones verdes con una cruz de color negro para hacer un zoom, en el botón verde con un guión para alejar o en las flechas verdes para mapas adyacentes.


METAR-TAF: